createdAt,value
2018-08-04T00:00:17.345Z,10.40
2018-08-04T00:02:46.486Z,10.10
2018-08-04T00:05:15.649Z,9.98
2018-08-04T00:07:44.805Z,10.60
2018-08-04T00:10:19.454Z,9.40
2018-08-04T00:12:49.791Z,10.15
2018-08-04T00:15:18.997Z,10.00
2018-08-04T00:17:48.733Z,9.98
2018-08-04T00:20:17.979Z,8.93
2018-08-04T00:22:47.434Z,8.75
2018-08-04T00:25:16.523Z,8.75
2018-08-04T00:27:45.634Z,8.88
2018-08-04T00:30:15.397Z,9.15
2018-08-04T00:32:44.567Z,9.00
2018-08-04T00:35:13.717Z,8.85
2018-08-04T00:37:42.894Z,8.50
2018-08-04T00:40:12.886Z,8.73
2018-08-04T00:42:43.122Z,8.30
2018-08-04T00:45:12.206Z,8.55
2018-08-04T00:47:41.360Z,8.40
2018-08-04T00:50:10.927Z,8.43
2018-08-04T00:52:40.088Z,8.50
2018-08-04T00:55:09.281Z,9.08
2018-08-04T00:57:38.367Z,8.68
2018-08-04T01:00:07.617Z,8.93
2018-08-04T01:02:36.750Z,8.80
2018-08-04T01:05:05.928Z,9.33
2018-08-04T01:07:35.178Z,9.13
2018-08-04T01:10:06.241Z,8.70
2018-08-04T01:12:35.393Z,8.55
2018-08-04T01:15:04.669Z,8.73
2018-08-04T01:17:33.808Z,8.45
2018-08-04T01:20:04.865Z,8.80
2018-08-04T01:22:35.414Z,8.33
2018-08-04T01:25:05.706Z,8.63
2018-08-04T01:27:34.855Z,8.88
2018-08-04T01:30:04.883Z,8.63
2018-08-04T01:32:34.004Z,8.68
2018-08-04T01:35:03.157Z,8.63
2018-08-04T01:37:32.297Z,9.43
2018-08-04T01:40:01.439Z,9.03
2018-08-04T01:42:30.554Z,9.63
2018-08-04T01:44:59.641Z,9.03
2018-08-04T01:47:28.452Z,8.83
2018-08-04T01:49:57.437Z,8.83
2018-08-04T01:52:26.577Z,9.10
2018-08-04T01:54:56.347Z,9.23
2018-08-04T01:57:25.467Z,9.48
2018-08-04T01:59:54.581Z,9.28
2018-08-04T02:02:23.709Z,9.08
2018-08-04T02:04:52.857Z,9.10
2018-08-04T02:07:22.022Z,8.88
2018-08-04T02:09:51.130Z,8.93
2018-08-04T02:12:20.221Z,9.40
2018-08-04T02:14:49.346Z,9.10
2018-08-04T02:17:18.477Z,9.50
2018-08-04T02:19:47.576Z,8.78
2018-08-04T02:22:16.726Z,8.95
2018-08-04T02:24:45.862Z,9.13
2018-08-04T02:27:15.032Z,8.45
2018-08-04T02:29:44.132Z,8.78
2018-08-04T02:32:13.251Z,8.40
2018-08-04T02:34:42.353Z,9.03
2018-08-04T02:37:11.472Z,9.00
2018-08-04T02:39:40.569Z,9.50
2018-08-04T02:42:09.689Z,8.38
2018-08-04T02:44:38.915Z,9.05
2018-08-04T02:47:08.050Z,8.50
2018-08-04T02:49:37.281Z,8.63
2018-08-04T02:52:06.421Z,7.83
2018-08-04T02:54:35.522Z,8.65
2018-08-04T02:57:04.706Z,8.50
2018-08-04T02:59:33.815Z,9.03
2018-08-04T03:02:02.951Z,8.93
2018-08-04T03:04:32.073Z,8.70
2018-08-04T03:07:01.207Z,8.60
2018-08-04T03:09:30.343Z,8.98
2018-08-04T03:11:59.167Z,9.23
2018-08-04T03:14:28.167Z,9.88
2018-08-04T03:16:57.273Z,9.78
2018-08-04T03:19:26.423Z,9.83
2018-08-04T03:21:55.541Z,9.23
2018-08-04T03:24:24.681Z,10.25
2018-08-04T03:26:53.848Z,10.20
2018-08-04T03:29:22.984Z,9.60
2018-08-04T03:31:52.102Z,9.98
2018-08-04T03:34:21.252Z,9.05
2018-08-04T03:36:50.351Z,9.88
2018-08-04T03:39:19.491Z,10.10
2018-08-04T03:41:48.634Z,9.93
2018-08-04T03:44:17.733Z,9.53
2018-08-04T03:46:46.853Z,10.15
2018-08-04T03:49:16.008Z,9.55
2018-08-04T03:51:45.049Z,9.98
2018-08-04T03:54:14.178Z,9.68
2018-08-04T03:56:43.290Z,10.43
2018-08-04T03:59:12.442Z,10.45
2018-08-04T04:01:41.614Z,11.97
2018-08-04T04:04:10.797Z,11.80
2018-08-04T04:06:39.975Z,12.17
2018-08-04T04:09:10.242Z,11.90
2018-08-04T04:11:39.426Z,11.80
2018-08-04T04:14:08.613Z,12.47
2018-08-04T04:16:37.754Z,12.03
2018-08-04T04:19:06.596Z,11.27
2018-08-04T04:21:35.615Z,10.23
2018-08-04T04:24:04.739Z,10.30
2018-08-04T04:26:34.098Z,9.93
2018-08-04T04:29:03.253Z,10.10
2018-08-04T04:31:32.363Z,9.27
2018-08-04T04:34:01.681Z,9.70
2018-08-04T04:36:30.767Z,8.60
2018-08-04T04:38:59.968Z,9.43
2018-08-04T04:41:29.138Z,9.93
2018-08-04T04:43:58.232Z,9.83
2018-08-04T04:46:27.405Z,10.55
2018-08-04T04:48:56.562Z,10.18
2018-08-04T04:51:25.826Z,11.63
2018-08-04T04:53:54.934Z,10.70
2018-08-04T04:56:24.058Z,10.15
2018-08-04T04:58:53.171Z,10.55
2018-08-04T05:01:23.291Z,11.35
2018-08-04T05:03:52.546Z,13.08
2018-08-04T05:06:21.713Z,12.15
2018-08-04T05:08:51.122Z,12.25
2018-08-04T05:11:20.657Z,12.67
2018-08-04T05:13:49.818Z,11.75
2018-08-04T05:16:18.974Z,13.65
2018-08-04T05:18:48.116Z,12.85
2018-08-04T05:21:18.133Z,11.50
2018-08-04T05:23:47.641Z,10.03
2018-08-04T05:26:16.784Z,11.18
2018-08-04T05:28:45.933Z,10.18
2018-08-04T05:31:15.128Z,10.93
2018-08-04T05:33:44.261Z,12.45
2018-08-04T05:36:13.387Z,12.17
2018-08-04T05:38:42.531Z,12.37
2018-08-04T05:41:11.708Z,11.90
2018-08-04T05:43:40.842Z,10.30
2018-08-04T05:46:09.998Z,9.63
2018-08-04T05:48:39.120Z,9.83
2018-08-04T05:51:08.237Z,8.98
2018-08-04T05:53:37.387Z,9.35
2018-08-04T05:56:06.550Z,9.43
2018-08-04T05:58:35.723Z,8.53
2018-08-04T06:01:04.906Z,9.45
2018-08-04T06:03:34.154Z,9.15
2018-08-04T06:06:03.297Z,9.03
2018-08-04T06:08:32.425Z,8.98
2018-08-04T06:11:01.590Z,9.68
2018-08-04T06:13:30.728Z,9.60
2018-08-04T06:15:59.833Z,9.98
2018-08-04T06:18:28.938Z,11.48
2018-08-04T06:20:58.089Z,12.88
2018-08-04T06:23:27.230Z,12.93
2018-08-04T06:25:56.570Z,13.35
2018-08-04T06:28:25.781Z,14.45
2018-08-04T06:30:55.034Z,14.18
2018-08-04T06:33:24.168Z,14.23
2018-08-04T06:35:53.330Z,13.90
2018-08-04T06:38:22.493Z,13.95
2018-08-04T06:40:51.662Z,13.68
2018-08-04T06:43:20.803Z,14.00
2018-08-04T06:45:50.006Z,13.43
2018-08-04T06:48:19.146Z,14.95
2018-08-04T06:50:48.337Z,13.83
2018-08-04T06:53:17.507Z,13.50
2018-08-04T06:55:46.689Z,13.65
2018-08-04T06:58:15.828Z,12.95
2018-08-04T07:00:45.026Z,13.93
2018-08-04T07:03:14.151Z,12.60
2018-08-04T07:05:43.372Z,13.45
2018-08-04T07:08:12.237Z,13.50
2018-08-04T07:10:47.731Z,13.22
2018-08-04T07:13:16.867Z,12.65
2018-08-04T07:15:46.003Z,12.05
2018-08-04T07:18:15.153Z,13.22
2018-08-04T07:20:44.367Z,12.68
2018-08-04T07:23:13.542Z,11.97
2018-08-04T07:25:42.691Z,12.53
2018-08-04T07:28:11.830Z,12.82
2018-08-04T07:30:40.749Z,12.05
2018-08-04T07:33:09.729Z,11.95
2018-08-04T07:35:38.881Z,12.43
2018-08-04T07:38:07.997Z,11.75
2018-08-04T07:40:37.129Z,12.50
2018-08-04T07:43:06.288Z,11.48
2018-08-04T07:45:35.410Z,12.20
2018-08-04T07:48:04.586Z,13.72
2018-08-04T07:50:33.779Z,12.63
2018-08-04T07:53:02.906Z,12.23
2018-08-04T07:55:32.046Z,11.70
2018-08-04T07:58:01.201Z,11.90
2018-08-04T08:00:30.317Z,11.80
2018-08-04T08:02:59.461Z,11.85
2018-08-04T08:05:28.619Z,11.63
2018-08-04T08:07:57.753Z,12.20
2018-08-04T08:10:27.021Z,12.20
2018-08-04T08:12:56.183Z,12.13
2018-08-04T08:15:25.298Z,11.55
2018-08-04T08:17:54.647Z,12.78
2018-08-04T08:20:23.738Z,11.43
2018-08-04T08:22:53.126Z,11.35
2018-08-04T08:25:22.278Z,11.15
2018-08-04T08:27:51.442Z,10.80
2018-08-04T08:30:20.578Z,11.48
2018-08-04T08:32:49.940Z,11.63
2018-08-04T08:35:19.094Z,11.35
2018-08-04T08:37:48.297Z,10.85
2018-08-04T08:40:17.548Z,11.25
2018-08-04T08:42:46.684Z,11.33
2018-08-04T08:45:15.839Z,10.60
2018-08-04T08:47:44.990Z,11.57
2018-08-04T08:50:14.105Z,11.22
2018-08-04T08:52:43.283Z,11.20
2018-08-04T08:55:12.409Z,10.80
2018-08-04T08:57:41.553Z,10.88
2018-08-04T09:00:11.633Z,10.05
2018-08-04T09:02:40.886Z,10.80
2018-08-04T09:05:10.757Z,10.93
2018-08-04T09:07:40.345Z,10.85
2018-08-04T09:10:12.457Z,10.13
2018-08-04T09:12:42.165Z,11.40
2018-08-04T09:15:11.303Z,10.75
2018-08-04T09:17:40.497Z,11.30
2018-08-04T09:20:10.690Z,11.40
2018-08-04T09:22:40.106Z,10.85
2018-08-04T09:25:09.640Z,10.82
2018-08-04T09:27:39.789Z,11.20
2018-08-04T09:30:11.589Z,10.63
2018-08-04T09:32:41.891Z,11.63
2018-08-04T09:35:11.494Z,10.70
2018-08-04T09:37:40.665Z,10.68
2018-08-04T09:40:12.327Z,10.38
2018-08-04T09:42:41.803Z,11.68
2018-08-04T09:45:11.061Z,10.90
2018-08-04T09:47:40.973Z,10.80
2018-08-04T09:50:11.831Z,11.10
2018-08-04T09:52:42.562Z,10.15
2018-08-04T09:55:12.112Z,12.63
2018-08-04T09:57:42.394Z,12.23
2018-08-04T10:00:18.051Z,14.70
2018-08-04T10:02:47.354Z,12.58
2018-08-04T10:05:16.565Z,12.10
2018-08-04T10:07:45.643Z,12.37
2018-08-04T10:10:14.813Z,12.85
2018-08-04T10:12:44.067Z,11.12
2018-08-04T10:15:13.192Z,11.22
2018-08-04T10:17:42.360Z,11.75
2018-08-04T10:20:12.316Z,10.43
2018-08-04T10:22:41.484Z,11.63
2018-08-04T10:25:10.706Z,10.35
2018-08-04T10:27:39.934Z,11.03
2018-08-04T10:30:11.056Z,9.60
2018-08-04T10:32:40.398Z,9.83
2018-08-04T10:35:09.725Z,8.78
2018-08-04T10:37:39.122Z,9.33
2018-08-04T10:40:08.408Z,10.75
2018-08-04T10:42:37.602Z,10.30
2018-08-04T10:45:07.121Z,8.75
2018-08-04T10:47:36.333Z,8.30
2018-08-04T10:50:05.873Z,8.70
2018-08-04T10:52:35.180Z,9.88
2018-08-04T10:55:04.440Z,8.90
2018-08-04T10:57:33.617Z,7.50
2018-08-04T11:00:02.787Z,8.33
2018-08-04T11:02:31.969Z,7.62
2018-08-04T11:05:01.146Z,7.85
2018-08-04T11:07:30.431Z,7.80
2018-08-04T11:10:00.040Z,7.03
2018-08-04T11:12:29.228Z,6.42
2018-08-04T11:14:58.329Z,6.55
2018-08-04T11:17:27.495Z,7.53
2018-08-04T11:19:57.692Z,6.78
2018-08-04T11:22:26.809Z,6.70
2018-08-04T11:24:55.952Z,6.03
2018-08-04T11:27:25.090Z,5.90
2018-08-04T11:29:54.265Z,6.35
2018-08-04T11:32:23.069Z,5.45
2018-08-04T11:34:52.135Z,5.12
2018-08-04T11:37:21.332Z,5.90
2018-08-04T11:39:50.481Z,6.10
2018-08-04T11:42:19.621Z,6.25
2018-08-04T11:44:48.772Z,5.62
2018-08-04T11:47:17.949Z,5.58
2018-08-04T11:49:47.723Z,5.65
2018-08-04T11:52:16.896Z,5.83
2018-08-04T11:54:46.077Z,5.40
2018-08-04T11:57:15.268Z,6.00
2018-08-04T11:59:44.443Z,6.47
2018-08-04T12:02:13.602Z,6.25
2018-08-04T12:04:42.816Z,6.33
2018-08-04T12:07:12.017Z,5.78
2018-08-04T12:09:41.194Z,5.92
2018-08-04T12:12:10.325Z,6.10
2018-08-04T12:14:39.153Z,5.80
2018-08-04T12:17:08.198Z,6.20
2018-08-04T12:19:37.357Z,5.97
2018-08-04T12:22:07.151Z,5.87
2018-08-04T12:24:36.289Z,6.62
2018-08-04T12:27:05.791Z,5.75
2018-08-04T12:29:35.010Z,5.20
2018-08-04T12:32:04.205Z,5.55
2018-08-04T12:34:33.382Z,5.47
2018-08-04T12:37:02.559Z,5.62
2018-08-04T12:39:31.749Z,5.15
2018-08-04T12:42:00.875Z,5.97
2018-08-04T12:44:30.004Z,5.60
2018-08-04T12:46:59.185Z,5.92
2018-08-04T12:49:28.329Z,5.47
2018-08-04T12:51:57.496Z,5.55
2018-08-04T12:54:26.822Z,6.17
2018-08-04T12:56:55.917Z,5.72
2018-08-04T12:59:25.095Z,5.50
2018-08-04T13:01:54.237Z,6.20
2018-08-04T13:04:23.437Z,5.92
2018-08-04T13:06:52.652Z,5.60
2018-08-04T13:09:21.807Z,5.25
2018-08-04T13:11:50.971Z,5.00
2018-08-04T13:14:20.142Z,4.87
2018-08-04T13:16:49.279Z,4.95
2018-08-04T13:19:18.451Z,4.90
2018-08-04T13:21:47.570Z,4.80
2018-08-04T13:24:16.461Z,4.45
2018-08-04T13:26:45.511Z,5.00
2018-08-04T13:29:15.036Z,5.12
2018-08-04T13:31:44.164Z,4.40
2018-08-04T13:34:13.318Z,5.67
2018-08-04T13:36:42.624Z,5.08
2018-08-04T13:39:11.800Z,5.03
2018-08-04T13:41:41.047Z,4.85
2018-08-04T13:44:10.237Z,5.00
2018-08-04T13:46:39.468Z,4.87
2018-08-04T13:49:08.481Z,4.83
2018-08-04T13:51:37.722Z,5.08
2018-08-04T13:54:07.145Z,4.65
2018-08-04T13:56:36.400Z,4.75
2018-08-04T13:59:05.684Z,5.10
2018-08-04T14:01:34.942Z,4.72
2018-08-04T14:04:04.171Z,4.97
2018-08-04T14:06:33.294Z,5.17
2018-08-04T14:09:02.511Z,4.90
2018-08-04T14:11:31.660Z,5.12
2018-08-04T14:14:00.905Z,4.80
2018-08-04T14:16:30.033Z,5.35
2018-08-04T14:18:59.272Z,5.00
2018-08-04T14:21:28.724Z,5.22
2018-08-04T14:23:58.229Z,4.87
2018-08-04T14:26:27.416Z,5.60
2018-08-04T14:28:56.643Z,5.30
2018-08-04T14:31:25.839Z,5.40
2018-08-04T14:33:55.123Z,5.75
2018-08-04T14:36:24.332Z,6.45
2018-08-04T14:38:53.474Z,5.87
2018-08-04T14:41:22.678Z,5.30
2018-08-04T14:43:51.844Z,5.83
2018-08-04T14:46:21.051Z,5.62
2018-08-04T14:48:50.176Z,6.05
2018-08-04T14:51:19.421Z,6.20
2018-08-04T14:53:48.628Z,6.28
2018-08-04T14:56:17.801Z,5.85
2018-08-04T14:58:47.005Z,6.42
2018-08-04T15:01:16.154Z,6.78
2018-08-04T15:03:45.307Z,6.12
2018-08-04T15:06:14.462Z,5.47
2018-08-04T15:08:43.647Z,6.03
2018-08-04T15:11:12.917Z,5.95
2018-08-04T15:13:42.173Z,6.33
2018-08-04T15:16:11.378Z,6.10
2018-08-04T15:18:40.527Z,5.72
2018-08-04T15:21:09.762Z,6.58
2018-08-04T15:23:38.961Z,6.45
2018-08-04T15:26:08.193Z,6.60
2018-08-04T15:28:37.402Z,6.08
2018-08-04T15:31:06.703Z,6.65
2018-08-04T15:33:35.855Z,6.62
2018-08-04T15:36:05.273Z,6.50
2018-08-04T15:38:34.423Z,6.62
2018-08-04T15:41:03.831Z,6.85
2018-08-04T15:43:33.014Z,6.45
2018-08-04T15:46:02.251Z,6.65
2018-08-04T15:48:31.392Z,6.58
2018-08-04T15:51:00.588Z,6.70
2018-08-04T15:53:29.785Z,6.85
2018-08-04T15:55:58.989Z,6.92
2018-08-04T15:58:28.309Z,6.78
2018-08-04T16:00:57.676Z,6.72
2018-08-04T16:03:26.875Z,7.45
2018-08-04T16:05:56.077Z,7.20
2018-08-04T16:08:25.346Z,6.53
2018-08-04T16:10:54.526Z,7.10
2018-08-04T16:13:23.698Z,7.03
2018-08-04T16:15:52.978Z,6.92
2018-08-04T16:18:22.165Z,7.47
2018-08-04T16:20:51.040Z,6.90
2018-08-04T16:23:20.191Z,6.70
2018-08-04T16:25:49.484Z,6.15
2018-08-04T16:28:18.621Z,6.40
2018-08-04T16:30:47.914Z,6.62
2018-08-04T16:33:17.063Z,7.40
2018-08-04T16:35:46.199Z,6.20
2018-08-04T16:38:15.476Z,6.75
2018-08-04T16:40:45.522Z,6.15
2018-08-04T16:43:14.679Z,6.40
2018-08-04T16:45:43.836Z,7.25
2018-08-04T16:48:12.747Z,6.28
2018-08-04T16:50:42.409Z,6.20
2018-08-04T16:53:11.557Z,6.20
2018-08-04T16:55:40.674Z,6.67
2018-08-04T16:58:09.889Z,6.25
2018-08-04T17:00:39.286Z,6.37
2018-08-04T17:03:08.499Z,6.55
2018-08-04T17:05:37.687Z,6.90
2018-08-04T17:08:06.894Z,6.90
2018-08-04T17:10:36.145Z,6.55
2018-08-04T17:13:05.498Z,6.65
2018-08-04T17:15:34.632Z,6.78
2018-08-04T17:18:03.950Z,6.78
2018-08-04T17:20:33.113Z,6.60
2018-08-04T17:23:02.398Z,6.22
2018-08-04T17:25:31.566Z,5.87
2018-08-04T17:28:00.726Z,6.20
2018-08-04T17:30:29.897Z,5.80
2018-08-04T17:32:59.077Z,5.87
2018-08-04T17:35:28.252Z,5.53
2018-08-04T17:37:57.443Z,6.55
2018-08-04T17:40:26.715Z,6.05
2018-08-04T17:42:56.256Z,5.80
2018-08-04T17:45:25.430Z,5.70
2018-08-04T17:47:54.654Z,5.22
2018-08-04T17:50:23.830Z,5.95
2018-08-04T17:52:52.977Z,5.37
2018-08-04T17:55:22.130Z,5.70
2018-08-04T17:57:51.283Z,6.60
2018-08-04T18:00:20.417Z,6.10
2018-08-04T18:02:49.587Z,7.35
2018-08-04T18:05:18.703Z,6.78
2018-08-04T18:07:47.893Z,5.60
2018-08-04T18:10:17.039Z,6.75
2018-08-04T18:12:46.232Z,6.58
2018-08-04T18:15:15.346Z,6.33
2018-08-04T18:17:44.477Z,7.08
2018-08-04T18:20:13.679Z,6.10
2018-08-04T18:22:42.877Z,6.28
2018-08-04T18:25:11.730Z,8.05
2018-08-04T18:27:40.712Z,7.53
2018-08-04T18:30:09.866Z,6.62
2018-08-04T18:32:39.064Z,7.92
2018-08-04T18:35:08.189Z,6.55
2018-08-04T18:37:37.375Z,6.60
2018-08-04T18:40:06.542Z,7.08
2018-08-04T18:42:35.689Z,7.25
2018-08-04T18:45:05.658Z,7.55
2018-08-04T18:47:35.235Z,7.40
2018-08-04T18:50:04.531Z,7.50
2018-08-04T18:52:33.648Z,10.25
2018-08-04T18:55:02.835Z,9.78
2018-08-04T18:57:31.974Z,8.53
2018-08-04T19:00:01.107Z,8.18
2018-08-04T19:02:30.247Z,7.78
2018-08-04T19:04:59.429Z,7.22
2018-08-04T19:07:28.558Z,7.83
2018-08-04T19:09:57.697Z,7.45
2018-08-04T19:12:26.832Z,7.62
2018-08-04T19:14:56.048Z,7.65
2018-08-04T19:17:24.889Z,7.42
2018-08-04T19:19:53.939Z,7.62
2018-08-04T19:22:23.106Z,6.87
2018-08-04T19:24:52.252Z,6.78
2018-08-04T19:27:21.366Z,7.33
2018-08-04T19:29:50.477Z,7.50
2018-08-04T19:32:19.626Z,7.90
2018-08-04T19:34:48.756Z,7.15
2018-08-04T19:37:17.837Z,7.53
2018-08-04T19:39:47.011Z,7.53
2018-08-04T19:42:16.167Z,7.90
2018-08-04T19:44:45.281Z,7.97
2018-08-04T19:47:14.534Z,10.75
2018-08-04T19:49:43.736Z,10.08
2018-08-04T19:52:13.014Z,8.33
2018-08-04T19:54:42.140Z,8.25
2018-08-04T19:57:11.246Z,8.55
2018-08-04T19:59:40.411Z,9.03
2018-08-04T20:02:09.541Z,8.38
2018-08-04T20:04:39.314Z,8.95
2018-08-04T20:07:08.434Z,8.60
2018-08-04T20:09:37.580Z,9.15
2018-08-04T20:12:06.981Z,8.50
2018-08-04T20:14:36.143Z,8.23
2018-08-04T20:17:06.166Z,8.30
2018-08-04T20:19:35.493Z,8.43
2018-08-04T20:22:09.339Z,8.33
2018-08-04T20:24:38.622Z,7.50
2018-08-04T20:27:07.723Z,8.60
2018-08-04T20:29:36.929Z,9.03
2018-08-04T20:32:06.402Z,7.95
2018-08-04T20:34:35.250Z,7.90
2018-08-04T20:37:04.270Z,8.45
2018-08-04T20:39:33.493Z,7.95
2018-08-04T20:42:02.952Z,8.50
2018-08-04T20:44:32.079Z,8.10
2018-08-04T20:47:01.193Z,9.13
2018-08-04T20:49:30.340Z,8.58
2018-08-04T20:51:59.457Z,8.35
2018-08-04T20:54:28.643Z,9.08
2018-08-04T20:56:58.047Z,9.03
2018-08-04T20:59:27.204Z,8.60
2018-08-04T21:02:01.713Z,8.50
2018-08-04T21:04:32.033Z,8.30
2018-08-04T21:07:01.702Z,8.25
2018-08-04T21:09:32.226Z,8.35
2018-08-04T21:12:01.429Z,7.78
2018-08-04T21:14:30.951Z,8.75
2018-08-04T21:17:00.424Z,8.43
2018-08-04T21:19:29.604Z,8.50
2018-08-04T21:21:58.798Z,8.80
2018-08-04T21:24:27.941Z,9.33
2018-08-04T21:26:57.075Z,8.58
2018-08-04T21:29:26.266Z,8.58
2018-08-04T21:31:55.686Z,8.35
2018-08-04T21:34:24.857Z,9.20
2018-08-04T21:36:54.016Z,9.05
2018-08-04T21:39:23.140Z,8.85
2018-08-04T21:41:52.326Z,8.50
2018-08-04T21:44:21.442Z,9.15
2018-08-04T21:46:51.538Z,9.00
2018-08-04T21:49:21.213Z,9.23
2018-08-04T21:51:51.050Z,8.48
2018-08-04T21:54:20.343Z,9.10
2018-08-04T21:56:49.443Z,8.38
2018-08-04T21:59:18.621Z,9.08
2018-08-04T22:01:53.811Z,8.90
2018-08-04T22:04:27.658Z,8.80
2018-08-04T22:07:35.645Z,8.73
2018-08-04T22:10:04.847Z,8.08
2018-08-04T22:12:34.039Z,9.10
2018-08-04T22:15:03.696Z,9.23
2018-08-04T22:17:33.119Z,9.03
2018-08-04T22:20:02.255Z,9.15
2018-08-04T22:22:31.423Z,9.33
2018-08-04T22:25:00.541Z,9.10
2018-08-04T22:27:29.699Z,8.85
2018-08-04T22:29:58.920Z,9.38
2018-08-04T22:32:28.066Z,8.98
2018-08-04T22:34:57.171Z,9.55
2018-08-04T22:37:26.353Z,9.50
2018-08-04T22:39:55.516Z,9.18
2018-08-04T22:42:24.685Z,9.65
2018-08-04T22:45:01.976Z,9.73
2018-08-04T22:47:31.162Z,8.85
2018-08-04T22:50:00.301Z,9.60
2018-08-04T22:52:29.419Z,8.55
2018-08-04T22:54:58.774Z,9.95
2018-08-04T22:57:28.050Z,9.15
2018-08-04T22:59:57.261Z,9.70
2018-08-04T23:02:26.454Z,9.33
2018-08-04T23:04:55.588Z,8.93
2018-08-04T23:07:24.785Z,9.48
2018-08-04T23:09:53.965Z,9.20
2018-08-04T23:12:23.199Z,8.98
2018-08-04T23:14:52.365Z,8.85
2018-08-04T23:17:21.525Z,9.03
2018-08-04T23:19:50.753Z,9.23
2018-08-04T23:22:19.907Z,8.88
2018-08-04T23:24:49.082Z,8.75
2018-08-04T23:27:18.290Z,9.58
2018-08-04T23:29:47.411Z,9.18
2018-08-04T23:32:16.549Z,10.05
2018-08-04T23:34:45.724Z,9.90
2018-08-04T23:37:14.902Z,10.85
2018-08-04T23:39:44.034Z,10.35
2018-08-04T23:42:13.234Z,10.20
2018-08-04T23:44:42.400Z,9.33
2018-08-04T23:47:11.590Z,9.23
2018-08-04T23:49:40.721Z,8.83
2018-08-04T23:52:09.870Z,8.25
2018-08-04T23:54:39.037Z,8.48
2018-08-04T23:57:08.199Z,8.33
2018-08-04T23:59:37.443Z,7.60
